sensor_id;sensor_type;location;lat;lon;timestamp;pressure;altitude;pressure_sealevel;temperature;humidity
9460;BME280;4768;42.664;23.240;2023-02-23T00:00:24;1623.09;;;5.84;100.00
9460;BME280;4768;42.664;23.240;2023-02-23T00:02:53;602.72;;;5.91;100.00
9460;BME280;4768;42.664;23.240;2023-02-23T00:05:23;3321.66;;;6.03;100.00
9460;BME280;4768;42.664;23.240;2023-02-23T00:07:50;8428.38;;;6.09;100.00
9460;BME280;4768;42.664;23.240;2023-02-23T00:10:18;8428.38;;;6.07;100.00
9460;BME280;4768;42.664;23.240;2023-02-23T00:12:47;8087.66;;;6.02;100.00
9460;BME280;4768;42.664;23.240;2023-02-23T00:15:14;8428.34;;;6.05;100.00
9460;BME280;4768;42.664;23.240;2023-02-23T00:17:42;8769.06;;;6.02;100.00
9460;BME280;4768;42.664;23.240;2023-02-23T00:20:12;10132.13;;;5.97;100.00
9460;BME280;4768;42.664;23.240;2023-02-23T00:22:41;13884.69;;;6.08;100.00
9460;BME280;4768;42.664;23.240;2023-02-23T00:25:08;14223.88;;;5.87;100.00
9460;BME280;4768;42.664;23.240;2023-02-23T00:27:36;14907.28;;;5.95;100.00
9460;BME280;4768;42.664;23.240;2023-02-23T00:30:11;9109.31;;;5.75;100.00
9460;BME280;4768;42.664;23.240;2023-02-23T00:32:38;2645.41;;;5.56;100.00
9460;BME280;4768;42.664;23.240;2023-02-23T00:35:06;-1768.53;;;5.49;100.00
9460;BME280;4768;42.664;23.240;2023-02-23T00:37:42;-5159.66;;;5.46;100.00
9460;BME280;4768;42.664;23.240;2023-02-23T00:40:11;-6175.00;;;5.39;100.00
9460;BME280;4768;42.664;23.240;2023-02-23T00:42:39;-7191.13;;;5.38;100.00
9460;BME280;4768;42.664;23.240;2023-02-23T00:45:07;-5161.56;;;5.55;100.00
9460;BME280;4768;42.664;23.240;2023-02-23T00:47:38;-6522.34;;;5.76;100.00
9460;BME280;4768;42.664;23.240;2023-02-23T00:50:07;-6525.84;;;5.90;100.00
9460;BME280;4768;42.664;23.240;2023-02-23T00:52:37;-7191.13;;;5.38;100.00
9460;BME280;4768;42.664;23.240;2023-02-23T00:55:05;-9559.28;;;5.24;100.00
9460;BME280;4768;42.664;23.240;2023-02-23T00:57:32;-9560.69;;;5.29;100.00
9460;BME280;4768;42.664;23.240;2023-02-23T00:59:59;-9560.84;;;5.29;100.00
9460;BME280;4768;42.664;23.240;2023-02-23T01:02:26;-9566.06;;;5.48;100.00
9460;BME280;4768;42.664;23.240;2023-02-23T01:04:56;-9568.47;;;5.56;100.00
9460;BME280;4768;42.664;23.240;2023-02-23T01:07:23;-9555.63;;;5.11;100.00
9460;BME280;4768;42.664;23.240;2023-02-23T01:09:50;-9551.94;;;4.98;100.00
9460;BME280;4768;42.664;23.240;2023-02-23T01:12:18;-9551.50;;;4.97;100.00
9460;BME280;4768;42.664;23.240;2023-02-23T01:14:44;-9560.28;;;5.28;100.00
9460;BME280;4768;42.664;23.240;2023-02-23T01:17:12;-9560.13;;;5.27;100.00
9460;BME280;4768;42.664;23.240;2023-02-23T01:19:38;-9550.81;;;4.94;100.00
9460;BME280;4768;42.664;23.240;2023-02-23T01:22:06;-9547.41;;;4.82;100.00
9460;BME280;4768;42.664;23.240;2023-02-23T01:24:33;-9544.16;;;4.71;100.00
9460;BME280;4768;42.664;23.240;2023-02-23T01:27:03;-9540.06;;;4.57;100.00
9460;BME280;4768;42.664;23.240;2023-02-23T01:29:29;-9533.28;;;4.33;100.00
9460;BME280;4768;42.664;23.240;2023-02-23T01:31:56;-9537.38;;;4.47;100.00
9460;BME280;4768;42.664;23.240;2023-02-23T01:34:23;-9539.22;;;4.54;100.00
9460;BME280;4768;42.664;23.240;2023-02-23T01:36:49;-9539.06;;;4.53;100.00
9460;BME280;4768;42.664;23.240;2023-02-23T01:39:19;-9541.19;;;4.61;100.00
9460;BME280;4768;42.664;23.240;2023-02-23T01:41:46;-9544.00;;;4.71;100.00
9460;BME280;4768;42.664;23.240;2023-02-23T01:47:20;-9546.97;;;4.81;100.00
9460;BME280;4768;42.664;23.240;2023-02-23T01:49:47;-9550.66;;;4.94;100.00
9460;BME280;4768;42.664;23.240;2023-02-23T01:52:15;-9555.31;;;5.10;100.00
9460;BME280;4768;42.664;23.240;2023-02-23T01:54:47;-9557.03;;;5.16;100.00
9460;BME280;4768;42.664;23.240;2023-02-23T01:57:17;-9557.31;;;5.17;100.00
9460;BME280;4768;42.664;23.240;2023-02-23T01:59:47;-9553.47;;;5.04;100.00
9460;BME280;4768;42.664;23.240;2023-02-23T02:02:16;-9550.38;;;4.93;100.00
9460;BME280;4768;42.664;23.240;2023-02-23T02:04:43;-9551.09;;;4.95;100.00
9460;BME280;4768;42.664;23.240;2023-02-23T02:07:11;-9551.78;;;4.98;100.00
9460;BME280;4768;42.664;23.240;2023-02-23T02:09:39;-9554.75;;;5.08;100.00
9460;BME280;4768;42.664;23.240;2023-02-23T02:12:27;-9555.03;;;5.09;100.00
9460;BME280;4768;42.664;23.240;2023-02-23T02:14:54;-9556.47;;;5.14;100.00
9460;BME280;4768;42.664;23.240;2023-02-23T02:17:30;-9556.88;;;5.16;100.00
9460;BME280;4768;42.664;23.240;2023-02-23T02:20:34;-9555.63;;;5.11;100.00
9460;BME280;4768;42.664;23.240;2023-02-23T02:26:32;-9553.78;;;5.05;100.00
9460;BME280;4768;42.664;23.240;2023-02-23T02:29:40;-9549.81;;;4.91;100.00
9460;BME280;4768;42.664;23.240;2023-02-23T02:32:27;-9546.28;;;4.78;100.00
9460;BME280;4768;42.664;23.240;2023-02-23T02:35:36;-9549.94;;;4.91;100.00
9460;BME280;4768;42.664;23.240;2023-02-23T02:38:16;-9555.03;;;5.09;100.00
9460;BME280;4768;42.664;23.240;2023-02-23T02:40:54;-9552.78;;;5.01;100.00
9460;BME280;4768;42.664;23.240;2023-02-23T02:43:36;-9554.34;;;5.07;100.00
9460;BME280;4768;42.664;23.240;2023-02-23T02:46:10;-9558.28;;;5.21;100.00
9460;BME280;4768;42.664;23.240;2023-02-23T02:48:45;-9552.78;;;5.01;100.00
9460;BME280;4768;42.664;23.240;2023-02-23T02:51:20;-9550.81;;;4.94;100.00
9460;BME280;4768;42.664;23.240;2023-02-23T02:53:55;-9557.16;;;5.17;100.00
9460;BME280;4768;42.664;23.240;2023-02-23T02:56:32;-9563.25;;;5.38;100.00
9460;BME280;4768;42.664;23.240;2023-02-23T02:59:06;-9550.94;;;4.95;100.00
9460;BME280;4768;42.664;23.240;2023-02-23T03:01:46;-9538.66;;;4.52;100.00
9460;BME280;4768;42.664;23.240;2023-02-23T03:04:30;-9532.28;;;4.30;100.00
9460;BME280;4768;42.664;23.240;2023-02-23T03:07:19;-9526.78;;;4.10;100.00
9460;BME280;4768;42.664;23.240;2023-02-23T03:10:13;-9523.38;;;3.98;100.00
9460;BME280;4768;42.664;23.240;2023-02-23T03:13:06;-9519.84;;;3.86;100.00
9460;BME280;4768;42.664;23.240;2023-02-23T03:16:02;-9517.31;;;3.77;100.00
9460;BME280;4768;42.664;23.240;2023-02-23T03:19:01;-9515.34;;;3.70;100.00
9460;BME280;4768;42.664;23.240;2023-02-23T03:21:51;-9513.34;;;3.63;100.00
9460;BME280;4768;42.664;23.240;2023-02-23T03:24:41;-9510.81;;;3.54;100.00
9460;BME280;4768;42.664;23.240;2023-02-23T03:27:41;-9509.25;;;3.49;100.00
9460;BME280;4768;42.664;23.240;2023-02-23T03:30:35;-9509.69;;;3.50;100.00
9460;BME280;4768;42.664;23.240;2023-02-23T03:33:29;-9510.69;;;3.54;100.00
9460;BME280;4768;42.664;23.240;2023-02-23T03:36:22;-9509.97;;;3.51;100.00
9460;BME280;4768;42.664;23.240;2023-02-23T03:39:14;-9508.28;;;3.45;100.00
9460;BME280;4768;42.664;23.240;2023-02-23T03:42:05;-9507.16;;;3.41;100.00
9460;BME280;4768;42.664;23.240;2023-02-23T03:44:53;-9506.03;;;3.37;100.00
9460;BME280;4768;42.664;23.240;2023-02-23T03:47:41;-9505.44;;;3.35;100.00
9460;BME280;4768;42.664;23.240;2023-02-23T03:50:31;-9502.91;;;3.27;100.00
9460;BME280;4768;42.664;23.240;2023-02-23T03:53:21;-9501.06;;;3.20;100.00
9460;BME280;4768;42.664;23.240;2023-02-23T03:56:09;-9503.63;;;3.29;100.00
9460;BME280;4768;42.664;23.240;2023-02-23T03:58:58;-9505.16;;;3.35;100.00
9460;BME280;4768;42.664;23.240;2023-02-23T04:01:44;-9504.47;;;3.32;100.00
9460;BME280;4768;42.664;23.240;2023-02-23T04:04:30;-9505.44;;;3.35;100.00
9460;BME280;4768;42.664;23.240;2023-02-23T04:07:17;-9503.47;;;3.29;100.00
9460;BME280;4768;42.664;23.240;2023-02-23T04:10:03;-9503.34;;;3.28;100.00
9460;BME280;4768;42.664;23.240;2023-02-23T04:12:52;-9503.19;;;3.28;100.00
9460;BME280;4768;42.664;23.240;2023-02-23T04:15:43;-9505.03;;;3.34;100.00
9460;BME280;4768;42.664;23.240;2023-02-23T04:18:14;-9505.59;;;3.36;100.00
9460;BME280;4768;42.664;23.240;2023-02-23T04:20:42;-9506.16;;;3.38;100.00
9460;BME280;4768;42.664;23.240;2023-02-23T04:23:08;-9503.75;;;3.30;100.00
9460;BME280;4768;42.664;23.240;2023-02-23T04:25:35;-9499.38;;;3.14;100.00
9460;BME280;4768;42.664;23.240;2023-02-23T04:28:02;-9499.38;;;3.14;100.00
9460;BME280;4768;42.664;23.240;2023-02-23T04:30:29;-9501.34;;;3.21;100.00
9460;BME280;4768;42.664;23.240;2023-02-23T04:32:56;-9501.34;;;3.21;100.00
9460;BME280;4768;42.664;23.240;2023-02-23T04:35:25;-9507.56;;;3.43;100.00
9460;BME280;4768;42.664;23.240;2023-02-23T04:37:53;-9508.56;;;3.46;100.00
9460;BME280;4768;42.664;23.240;2023-02-23T04:40:20;-9503.75;;;3.30;100.00
9460;BME280;4768;42.664;23.240;2023-02-23T04:42:47;-9501.22;;;3.21;100.00
9460;BME280;4768;42.664;23.240;2023-02-23T04:45:13;-9499.53;;;3.15;100.00
9460;BME280;4768;42.664;23.240;2023-02-23T04:47:40;-9497.53;;;3.08;100.00
9460;BME280;4768;42.664;23.240;2023-02-23T04:50:08;-9496.97;;;3.06;100.00
9460;BME280;4768;42.664;23.240;2023-02-23T04:52:37;-9496.41;;;3.04;100.00
9460;BME280;4768;42.664;23.240;2023-02-23T04:55:04;-9496.13;;;3.03;100.00
9460;BME280;4768;42.664;23.240;2023-02-23T04:57:33;-9495.84;;;3.02;100.00
9460;BME280;4768;42.664;23.240;2023-02-23T05:00:00;-9496.56;;;3.04;100.00
9460;BME280;4768;42.664;23.240;2023-02-23T05:02:28;-9499.25;;;3.14;100.00
9460;BME280;4768;42.664;23.240;2023-02-23T05:04:56;-9502.47;;;3.25;100.00
9460;BME280;4768;42.664;23.240;2023-02-23T05:07:23;-9505.59;;;3.36;100.00
9460;BME280;4768;42.664;23.240;2023-02-23T05:09:51;-9503.63;;;3.29;100.00
9460;BME280;4768;42.664;23.240;2023-02-23T05:12:17;-9502.22;;;3.24;100.00
9460;BME280;4768;42.664;23.240;2023-02-23T05:14:44;-9499.81;;;3.16;100.00
9460;BME280;4768;42.664;23.240;2023-02-23T05:17:11;-9499.53;;;3.15;100.00
9460;BME280;4768;42.664;23.240;2023-02-23T05:19:38;-9496.28;;;3.03;100.00
9460;BME280;4768;42.664;23.240;2023-02-23T05:22:05;-9504.59;;;3.33;100.00
9460;BME280;4768;42.664;23.240;2023-02-23T05:24:36;-9505.31;;;3.35;100.00
9460;BME280;4768;42.664;23.240;2023-02-23T05:27:05;-9505.16;;;3.35;100.00
9460;BME280;4768;42.664;23.240;2023-02-23T05:29:31;-9510.25;;;3.52;100.00
9460;BME280;4768;42.664;23.240;2023-02-23T05:31:58;-9515.47;;;3.71;100.00
9460;BME280;4768;42.664;23.240;2023-02-23T05:34:25;-9519.00;;;3.83;100.00
9460;BME280;4768;42.664;23.240;2023-02-23T05:36:52;-9525.94;;;4.07;100.00
9460;BME280;4768;42.664;23.240;2023-02-23T05:39:19;-9531.72;;;4.28;100.00
9460;BME280;4768;42.664;23.240;2023-02-23T05:41:46;-9533.56;;;4.34;100.00
9460;BME280;4768;42.664;23.240;2023-02-23T05:44:14;-9527.91;;;4.14;100.00
9460;BME280;4768;42.664;23.240;2023-02-23T05:46:41;-9525.66;;;4.06;100.00
9460;BME280;4768;42.664;23.240;2023-02-23T05:49:09;-9531.44;;;4.27;100.00
9460;BME280;4768;42.664;23.240;2023-02-23T05:51:36;-9525.66;;;4.06;100.00
9460;BME280;4768;42.664;23.240;2023-02-23T05:54:04;-9525.22;;;4.05;100.00
9460;BME280;4768;42.664;23.240;2023-02-23T05:56:30;-9526.78;;;4.10;100.00
9460;BME280;4768;42.664;23.240;2023-02-23T05:58:58;-9528.19;;;4.15;100.00
9460;BME280;4768;42.664;23.240;2023-02-23T06:01:28;-9532.84;;;4.31;100.00
9460;BME280;4768;42.664;23.240;2023-02-23T06:03:55;-9536.94;;;4.46;100.00
9460;BME280;4768;42.664;23.240;2023-02-23T06:06:22;-9543.31;;;4.68;100.00
9460;BME280;4768;42.664;23.240;2023-02-23T06:08:50;-9549.66;;;4.90;100.00
9460;BME280;4768;42.664;23.240;2023-02-23T06:11:17;-9550.81;;;4.94;100.00
9460;BME280;4768;42.664;23.240;2023-02-23T06:13:44;-9550.38;;;4.93;100.00
9460;BME280;4768;42.664;23.240;2023-02-23T06:16:11;-9552.34;;;5.00;100.00
9460;BME280;4768;42.664;23.240;2023-02-23T06:18:39;-9554.91;;;5.09;100.00
9460;BME280;4768;42.664;23.240;2023-02-23T06:21:05;-9562.41;;;5.35;100.00
9460;BME280;4768;42.664;23.240;2023-02-23T06:23:32;-9569.59;;;5.60;100.00
9460;BME280;4768;42.664;23.240;2023-02-23T06:25:59;-9570.88;;;5.65;100.00
9460;BME280;4768;42.664;23.240;2023-02-23T06:28:27;-9577.25;;;5.87;100.00
9460;BME280;4768;42.664;23.240;2023-02-23T06:30:54;-9574.28;;;5.77;100.00
9460;BME280;4768;42.664;23.240;2023-02-23T06:33:21;-9571.59;;;5.67;100.00
9460;BME280;4768;42.664;23.240;2023-02-23T06:35:50;-9568.75;;;5.57;100.00
9460;BME280;4768;42.664;23.240;2023-02-23T06:38:17;-9577.81;;;5.89;100.00
9460;BME280;4768;42.664;23.240;2023-02-23T06:40:44;-9578.66;;;5.92;100.00
9460;BME280;4768;42.664;23.240;2023-02-23T06:43:11;-9588.44;;;6.26;100.00
9460;BME280;4768;42.664;23.240;2023-02-23T06:45:38;-9591.97;;;6.38;100.00
9460;BME280;4768;42.664;23.240;2023-02-23T06:48:05;-9584.75;;;6.13;100.00
9460;BME280;4768;42.664;23.240;2023-02-23T06:50:32;-9592.69;;;6.41;100.00
9460;BME280;4768;42.664;23.240;2023-02-23T06:53:01;-9597.06;;;6.56;100.00
9460;BME280;4768;42.664;23.240;2023-02-23T06:55:28;-9611.34;;;7.06;100.00
9460;BME280;4768;42.664;23.240;2023-02-23T06:57:54;-9601.72;;;6.72;100.00
9460;BME280;4768;42.664;23.240;2023-02-23T07:00:22;-9588.72;;;6.27;100.00
9460;BME280;4768;42.664;23.240;2023-02-23T07:02:48;-9583.47;;;6.09;100.00
9460;BME280;4768;42.664;23.240;2023-02-23T07:05:15;-9584.03;;;6.11;100.00
9460;BME280;4768;42.664;23.240;2023-02-23T07:07:42;-9592.97;;;6.42;100.00
9460;BME280;4768;42.664;23.240;2023-02-23T07:10:11;-9611.66;;;7.07;100.00
9460;BME280;4768;42.664;23.240;2023-02-23T07:12:38;-9630.06;;;7.71;100.00
9460;BME280;4768;42.664;23.240;2023-02-23T07:15:06;-9622.69;;;7.46;100.00
9460;BME280;4768;42.664;23.240;2023-02-23T07:17:33;-9628.91;;;7.68;100.00
9460;BME280;4768;42.664;23.240;2023-02-23T07:19:59;-9615.59;;;7.21;100.00
9460;BME280;4768;42.664;23.240;2023-02-23T07:22:26;-9623.53;;;7.49;100.00
9460;BME280;4768;42.664;23.240;2023-02-23T07:24:54;-9608.25;;;6.95;100.00
9460;BME280;4768;42.664;23.240;2023-02-23T07:27:23;-9610.22;;;7.02;100.00
9460;BME280;4768;42.664;23.240;2023-02-23T07:29:49;-9606.97;;;6.91;100.00
9460;BME280;4768;42.664;23.240;2023-02-23T07:32:16;-9606.53;;;6.89;100.00
9460;BME280;4768;42.664;23.240;2023-02-23T07:34:43;-9611.66;;;7.07;100.00
9460;BME280;4768;42.664;23.240;2023-02-23T07:37:10;-9616.59;;;7.24;100.00
9460;BME280;4768;42.664;23.240;2023-02-23T07:39:36;-9611.06;;;7.05;100.00
9460;BME280;4768;42.664;23.240;2023-02-23T07:42:03;-9615.03;;;7.19;100.00
9460;BME280;4768;42.664;23.240;2023-02-23T07:44:31;-9635.84;;;7.92;100.00
9460;BME280;4768;42.664;23.240;2023-02-23T07:46:58;-9649.88;;;8.41;100.00
9460;BME280;4768;42.664;23.240;2023-02-23T07:49:25;-4195.50;;;8.14;100.00
9460;BME280;4768;42.664;23.240;2023-02-23T07:51:52;5010.44;;;8.64;100.00
9460;BME280;4768;42.664;23.240;2023-02-23T07:54:18;2963.97;;;8.18;100.00
9460;BME280;4768;42.664;23.240;2023-02-23T07:56:46;4665.44;;;9.24;100.00
9460;BME280;4768;42.664;23.240;2023-02-23T07:59:13;28353.97;;;9.19;100.00
9460;BME280;4768;42.664;23.240;2023-02-23T08:01:41;35609.81;;;9.47;100.00
9460;BME280;4768;42.664;23.240;2023-02-23T08:04:07;53286.97;;;9.65;100.00
9460;BME280;4768;42.664;23.240;2023-02-23T08:06:35;52517.06;;;8.62;100.00
9460;BME280;4768;42.664;23.240;2023-02-23T08:09:03;44233.81;;;9.08;100.00
9460;BME280;4768;42.664;23.240;2023-02-23T08:11:30;50443.00;;;8.70;100.00
9460;BME280;4768;42.664;23.240;2023-02-23T08:13:57;48382.50;;;8.97;100.00
9460;BME280;4768;42.664;23.240;2023-02-23T08:16:25;53608.44;;;9.30;100.00
9460;BME280;4768;42.664;23.240;2023-02-23T08:18:55;58765.50;;;8.65;100.00
9460;BME280;4768;42.664;23.240;2023-02-23T08:21:22;45587.72;;;8.58;100.00
9460;BME280;4768;42.664;23.240;2023-02-23T08:23:49;39048.41;;;9.13;100.00
9460;BME280;4768;42.664;23.240;2023-02-23T08:26:16;59163.19;;;9.24;100.00
9460;BME280;4768;42.664;23.240;2023-02-23T08:28:42;64742.56;;;9.36;100.00
9460;BME280;4768;42.664;23.240;2023-02-23T08:31:11;89548.13;;;9.22;100.00
9460;BME280;4768;42.664;23.240;2023-02-23T08:33:38;82192.41;;;9.25;100.00
9460;BME280;4768;42.664;23.240;2023-02-23T08:36:07;99165.69;;;10.11;100.00
9460;BME280;4768;42.664;23.240;2023-02-23T08:38:34;144206.69;;;10.15;100.00
9460;BME280;4768;42.664;23.240;2023-02-23T08:41:04;169663.00;;;10.27;100.00
9460;BME280;4768;42.664;23.240;2023-02-23T08:43:31;169733.63;;;10.54;100.00
9460;BME280;4768;42.664;23.240;2023-02-23T08:45:58;169649.69;;;10.22;100.00
9460;BME280;4768;42.664;23.240;2023-02-23T08:48:25;169613.69;;;10.09;100.00
9460;BME280;4768;42.664;23.240;2023-02-23T08:50:55;169696.28;;;10.40;100.00
9460;BME280;4768;42.664;23.240;2023-02-23T08:53:23;169533.72;;;9.79;100.00
9460;BME280;4768;42.664;23.240;2023-02-23T08:55:54;169637.72;;;10.18;100.00
9460;BME280;4768;42.664;23.240;2023-02-23T08:58:22;169512.44;;;9.71;100.00
9460;BME280;4768;42.664;23.240;2023-02-23T09:00:49;169551.06;;;9.86;100.00
9460;BME280;4768;42.664;23.240;2023-02-23T09:03:16;169553.69;;;9.87;100.00
9460;BME280;4768;42.664;23.240;2023-02-23T09:05:43;169774.94;;;10.69;100.00
9460;BME280;4768;42.664;23.240;2023-02-23T09:08:11;169757.63;;;10.62;100.00
9460;BME280;4768;42.664;23.240;2023-02-23T09:10:39;169720.28;;;10.49;100.00
9460;BME280;4768;42.664;23.240;2023-02-23T09:13:08;169659.00;;;10.26;100.00
9460;BME280;4768;42.664;23.240;2023-02-23T09:15:35;169778.91;;;10.70;100.00
9460;BME280;4768;42.664;23.240;2023-02-23T09:18:03;169845.56;;;10.95;100.00
9460;BME280;4768;42.664;23.240;2023-02-23T09:20:29;169798.91;;;10.78;100.00
9460;BME280;4768;42.664;23.240;2023-02-23T09:22:56;169870.88;;;11.05;100.00
9460;BME280;4768;42.664;23.240;2023-02-23T09:25:23;169849.56;;;10.97;100.00
9460;BME280;4768;42.664;23.240;2023-02-23T09:27:54;169880.25;;;11.08;100.00
9460;BME280;4768;42.664;23.240;2023-02-23T09:30:22;169908.25;;;11.18;100.00
9460;BME280;4768;42.664;23.240;2023-02-23T09:32:50;170016.28;;;11.58;100.00
9460;BME280;4768;42.664;23.240;2023-02-23T09:35:18;169905.56;;;11.17;100.00
9460;BME280;4768;42.664;23.240;2023-02-23T09:37:47;169880.25;;;11.08;100.00
9460;BME280;4768;42.664;23.240;2023-02-23T09:40:16;169946.88;;;11.33;100.00
9460;BME280;4768;42.664;23.240;2023-02-23T09:42:52;169917.56;;;11.22;100.00
9460;BME280;4768;42.664;23.240;2023-02-23T09:45:29;169994.97;;;11.51;100.00
9460;BME280;4768;42.664;23.240;2023-02-23T09:48:09;170093.59;;;11.87;100.00
9460;BME280;4768;42.664;23.240;2023-02-23T09:50:37;170057.59;;;11.74;100.00
9460;BME280;4768;42.664;23.240;2023-02-23T09:53:18;170044.28;;;11.69;100.00
9460;BME280;4768;42.664;23.240;2023-02-23T09:55:47;170004.28;;;11.54;100.00
9460;BME280;4768;42.664;23.240;2023-02-23T09:58:20;170065.59;;;11.77;100.00
9460;BME280;4768;42.664;23.240;2023-02-23T10:00:59;170045.59;;;11.69;100.00
9460;BME280;4768;42.664;23.240;2023-02-23T10:03:32;170116.31;;;11.96;100.00
9460;BME280;4768;42.664;23.240;2023-02-23T10:06:03;170235.03;;;12.40;100.00
9460;BME280;4768;42.664;23.240;2023-02-23T10:08:43;170280.38;;;12.56;100.00
9460;BME280;4768;42.664;23.240;2023-02-23T10:11:21;170329.78;;;12.75;100.00
9460;BME280;4768;42.664;23.240;2023-02-23T10:13:57;170133.63;;;12.02;100.00
9460;BME280;4768;42.664;23.240;2023-02-23T10:16:37;170191.00;;;12.23;100.00
9460;BME280;4768;42.664;23.240;2023-02-23T10:19:13;170288.38;;;12.59;100.00
9460;BME280;4768;42.664;23.240;2023-02-23T10:21:45;170240.34;;;12.42;100.00
9460;BME280;4768;42.664;23.240;2023-02-23T10:24:18;170144.31;;;12.06;100.00
9460;BME280;4768;42.664;23.240;2023-02-23T10:26:50;170143.00;;;12.06;100.00
9460;BME280;4768;42.664;23.240;2023-02-23T10:29:24;170247.03;;;12.44;100.00
9460;BME280;4768;42.664;23.240;2023-02-23T10:31:55;170267.06;;;12.52;100.00
9460;BME280;4768;42.664;23.240;2023-02-23T10:34:24;170435.25;;;13.14;100.00
9460;BME280;4768;42.664;23.240;2023-02-23T10:36:57;170315.09;;;12.69;100.00
9460;BME280;4768;42.664;23.240;2023-02-23T10:39:24;170321.78;;;12.72;100.00
9460;BME280;4768;42.664;23.240;2023-02-23T10:41:52;170289.75;;;12.60;100.00
9460;BME280;4768;42.664;23.240;2023-02-23T10:44:22;170305.78;;;12.66;100.00
9460;BME280;4768;42.664;23.240;2023-02-23T10:46:53;170312.47;;;12.68;100.00
9460;BME280;4768;42.664;23.240;2023-02-23T10:49:23;170321.78;;;12.72;100.00
9460;BME280;4768;42.664;23.240;2023-02-23T10:51:54;170327.09;;;12.74;100.00
9460;BME280;4768;42.664;23.240;2023-02-23T10:54:36;170319.09;;;12.71;100.00
9460;BME280;4768;42.664;23.240;2023-02-23T10:57:04;170312.47;;;12.68;100.00
9460;BME280;4768;42.664;23.240;2023-02-23T10:59:34;170305.78;;;12.66;100.00
9460;BME280;4768;42.664;23.240;2023-02-23T11:02:15;170435.25;;;13.14;100.00
9460;BME280;4768;42.664;23.240;2023-02-23T11:04:53;170566.09;;;13.62;100.00
9460;BME280;4768;42.664;23.240;2023-02-23T11:07:23;170464.66;;;13.25;100.00
9460;BME280;4768;42.664;23.240;2023-02-23T11:09:54;170425.94;;;13.10;100.00
9460;BME280;4768;42.664;23.240;2023-02-23T11:12:22;170467.28;;;13.26;100.00
9460;BME280;4768;42.664;23.240;2023-02-23T11:14:53;170490.00;;;13.34;100.00
9460;BME280;4768;42.664;23.240;2023-02-23T11:17:27;170610.16;;;13.79;100.00
9460;BME280;4768;42.664;23.240;2023-02-23T11:20:03;170526.03;;;13.48;100.00
9460;BME280;4768;42.664;23.240;2023-02-23T11:22:33;170572.78;;;13.65;100.00
9460;BME280;4768;42.664;23.240;2023-02-23T11:25:13;170746.50;;;14.29;100.00
9460;BME280;4768;42.664;23.240;2023-02-23T11:27:45;170615.53;;;13.81;100.00
9460;BME280;4768;42.664;23.240;2023-02-23T11:30:19;170631.56;;;13.87;100.00
9460;BME280;4768;42.664;23.240;2023-02-23T11:32:50;170853.38;;;14.69;100.00
9460;BME280;4768;42.664;23.240;2023-02-23T11:35:27;170778.53;;;14.41;100.00
9460;BME280;4768;42.664;23.240;2023-02-23T11:37:55;170774.53;;;14.40;100.00
9460;BME280;4768;42.664;23.240;2023-02-23T11:40:24;170774.53;;;14.40;100.00
9460;BME280;4768;42.664;23.240;2023-02-23T11:42:53;170791.88;;;14.46;100.00
9460;BME280;4768;42.664;23.240;2023-02-23T11:45:23;170819.94;;;14.56;100.00
9460;BME280;4768;42.664;23.240;2023-02-23T11:47:52;170869.41;;;14.75;100.00
9460;BME280;4768;42.664;23.240;2023-02-23T11:50:25;170782.56;;;14.43;100.00
9460;BME280;4768;42.664;23.240;2023-02-23T11:52:56;170765.16;;;14.36;100.00
9460;BME280;4768;42.664;23.240;2023-02-23T11:55:26;170705.03;;;14.14;100.00
9460;BME280;4768;42.664;23.240;2023-02-23T11:58:07;170773.16;;;14.39;100.00
9460;BME280;4768;42.664;23.240;2023-02-23T12:00:36;170739.78;;;14.27;100.00
9460;BME280;4768;42.664;23.240;2023-02-23T12:03:03;170813.25;;;14.54;100.00
9460;BME280;4768;42.664;23.240;2023-02-23T12:05:31;170803.91;;;14.50;100.00
9460;BME280;4768;42.664;23.240;2023-02-23T12:08:03;170880.06;;;14.79;100.00
9460;BME280;4768;42.664;23.240;2023-02-23T12:10:35;170823.94;;;14.58;100.00
9460;BME280;4768;42.664;23.240;2023-02-23T12:13:23;170795.91;;;14.48;100.00
9460;BME280;4768;42.664;23.240;2023-02-23T12:15:55;170779.88;;;14.42;100.00
9460;BME280;4768;42.664;23.240;2023-02-23T12:18:36;170807.91;;;14.52;100.00
9460;BME280;4768;42.664;23.240;2023-02-23T12:21:14;170877.44;;;14.78;100.00
9460;BME280;4768;42.664;23.240;2023-02-23T12:23:45;170846.69;;;14.66;100.00
9460;BME280;4768;42.664;23.240;2023-02-23T12:26:15;170882.75;;;14.80;100.00
9460;BME280;4768;42.664;23.240;2023-02-23T12:28:50;170944.22;;;15.02;100.00
9460;BME280;4768;42.664;23.240;2023-02-23T12:31:25;170904.13;;;14.88;100.00
9460;BME280;4768;42.664;23.240;2023-02-23T12:33:56;170898.78;;;14.86;100.00
9460;BME280;4768;42.664;23.240;2023-02-23T12:36:30;170864.03;;;14.73;100.00
9460;BME280;4768;42.664;23.240;2023-02-23T12:39:03;170945.59;;;15.03;100.00
9460;BME280;4768;42.664;23.240;2023-02-23T12:41:36;170965.63;;;15.10;100.00
9460;BME280;4768;42.664;23.240;2023-02-23T12:44:11;170974.97;;;15.14;100.00
9460;BME280;4768;42.664;23.240;2023-02-23T12:46:47;170870.72;;;14.75;100.00
9460;BME280;4768;42.664;23.240;2023-02-23T12:49:21;170912.13;;;14.91;100.00
9460;BME280;4768;42.664;23.240;2023-02-23T12:51:54;170968.25;;;15.11;100.00
9460;BME280;4768;42.664;23.240;2023-02-23T12:54:23;170905.50;;;14.88;100.00
9460;BME280;4768;42.664;23.240;2023-02-23T12:56:57;170866.72;;;14.74;100.00
9460;BME280;4768;42.664;23.240;2023-02-23T12:59:44;170829.34;;;14.60;100.00
9460;BME280;4768;42.664;23.240;2023-02-23T13:02:20;170892.09;;;14.83;100.00
9460;BME280;4768;42.664;23.240;2023-02-23T13:04:59;170835.97;;;14.62;100.00
9460;BME280;4768;42.664;23.240;2023-02-23T13:07:38;170852.00;;;14.68;100.00
9460;BME280;4768;42.664;23.240;2023-02-23T13:10:16;170906.81;;;14.89;100.00
9460;BME280;4768;42.664;23.240;2023-02-23T13:12:53;170913.50;;;14.91;100.00
9460;BME280;4768;42.664;23.240;2023-02-23T13:15:28;170889.44;;;14.82;100.00
9460;BME280;4768;42.664;23.240;2023-02-23T13:18:02;170878.75;;;14.78;100.00
9460;BME280;4768;42.664;23.240;2023-02-23T13:20:37;170869.41;;;14.75;100.00
9460;BME280;4768;42.664;23.240;2023-02-23T13:23:13;170912.13;;;14.91;100.00
9460;BME280;4768;42.664;23.240;2023-02-23T13:25:47;170945.59;;;15.03;100.00
9460;BME280;4768;42.664;23.240;2023-02-23T13:28:19;170877.44;;;14.78;100.00
9460;BME280;4768;42.664;23.240;2023-02-23T13:30:47;170904.13;;;14.88;100.00
9460;BME280;4768;42.664;23.240;2023-02-23T13:33:23;170900.09;;;14.86;100.00